sensor_id;sensor_type;location;lat;lon;timestamp;P1;durP1;ratioP1;P2;durP2;ratioP2
28245;SDS011;15510;52.512;13.300;2022-12-10T00:01:14;17.67;;;11.23;;
28245;SDS011;15510;52.512;13.300;2022-12-10T00:03:42;19.87;;;12.50;;
28245;SDS011;15510;52.512;13.300;2022-12-10T00:06:10;19.37;;;11.50;;
28245;SDS011;15510;52.512;13.300;2022-12-10T00:08:37;20.23;;;13.00;;
28245;SDS011;15510;52.512;13.300;2022-12-10T00:11:04;21.70;;;13.00;;
28245;SDS011;15510;52.512;13.300;2022-12-10T00:13:32;19.77;;;12.37;;
28245;SDS011;15510;52.512;13.300;2022-12-10T00:15:59;19.67;;;12.03;;
28245;SDS011;15510;52.512;13.300;2022-12-10T00:18:26;18.50;;;11.40;;
28245;SDS011;15510;52.512;13.300;2022-12-10T00:20:51;18.83;;;12.03;;
28245;SDS011;15510;52.512;13.300;2022-12-10T00:23:17;18.10;;;11.47;;
28245;SDS011;15510;52.512;13.300;2022-12-10T00:25:43;19.33;;;12.97;;
28245;SDS011;15510;52.512;13.300;2022-12-10T00:28:09;19.60;;;12.50;;
28245;SDS011;15510;52.512;13.300;2022-12-10T00:30:35;41.97;;;20.90;;
28245;SDS011;15510;52.512;13.300;2022-12-10T00:33:01;22.30;;;12.80;;
28245;SDS011;15510;52.512;13.300;2022-12-10T00:35:26;22.37;;;12.33;;
28245;SDS011;15510;52.512;13.300;2022-12-10T00:37:53;21.83;;;13.33;;
28245;SDS011;15510;52.512;13.300;2022-12-10T00:40:18;28.30;;;13.30;;
28245;SDS011;15510;52.512;13.300;2022-12-10T00:42:45;20.10;;;13.23;;
28245;SDS011;15510;52.512;13.300;2022-12-10T00:45:11;20.20;;;12.47;;
28245;SDS011;15510;52.512;13.300;2022-12-10T00:47:37;21.60;;;13.03;;
28245;SDS011;15510;52.512;13.300;2022-12-10T00:50:02;21.20;;;12.53;;
28245;SDS011;15510;52.512;13.300;2022-12-10T00:52:28;26.53;;;15.20;;
28245;SDS011;15510;52.512;13.300;2022-12-10T00:54:56;23.83;;;13.57;;
28245;SDS011;15510;52.512;13.300;2022-12-10T00:57:22;21.10;;;12.30;;
28245;SDS011;15510;52.512;13.300;2022-12-10T00:59:48;19.63;;;12.53;;
28245;SDS011;15510;52.512;13.300;2022-12-10T01:02:14;18.27;;;11.80;;
28245;SDS011;15510;52.512;13.300;2022-12-10T01:04:39;23.37;;;12.87;;
28245;SDS011;15510;52.512;13.300;2022-12-10T01:07:07;19.40;;;11.97;;
28245;SDS011;15510;52.512;13.300;2022-12-10T01:09:33;20.57;;;12.67;;
28245;SDS011;15510;52.512;13.300;2022-12-10T01:12:00;19.30;;;11.70;;
28245;SDS011;15510;52.512;13.300;2022-12-10T01:14:28;20.27;;;12.27;;
28245;SDS011;15510;52.512;13.300;2022-12-10T01:16:57;21.23;;;12.87;;
28245;SDS011;15510;52.512;13.300;2022-12-10T01:19:24;22.93;;;13.33;;
28245;SDS011;15510;52.512;13.300;2022-12-10T01:21:50;21.30;;;12.50;;
28245;SDS011;15510;52.512;13.300;2022-12-10T01:24:21;22.80;;;12.77;;
28245;SDS011;15510;52.512;13.300;2022-12-10T01:26:51;21.63;;;12.90;;
28245;SDS011;15510;52.512;13.300;2022-12-10T01:29:17;18.17;;;11.60;;
28245;SDS011;15510;52.512;13.300;2022-12-10T01:31:42;20.33;;;12.20;;
28245;SDS011;15510;52.512;13.300;2022-12-10T01:34:12;20.60;;;12.27;;
28245;SDS011;15510;52.512;13.300;2022-12-10T01:36:39;18.37;;;11.60;;
28245;SDS011;15510;52.512;13.300;2022-12-10T01:39:11;19.53;;;11.77;;
28245;SDS011;15510;52.512;13.300;2022-12-10T01:41:41;17.57;;;11.57;;
28245;SDS011;15510;52.512;13.300;2022-12-10T01:46:38;18.67;;;11.87;;
28245;SDS011;15510;52.512;13.300;2022-12-10T01:49:09;19.17;;;11.33;;
28245;SDS011;15510;52.512;13.300;2022-12-10T01:51:38;19.27;;;11.70;;
28245;SDS011;15510;52.512;13.300;2022-12-10T01:54:07;16.47;;;11.23;;
28245;SDS011;15510;52.512;13.300;2022-12-10T01:56:36;20.83;;;12.00;;
28245;SDS011;15510;52.512;13.300;2022-12-10T01:59:03;17.67;;;11.53;;
28245;SDS011;15510;52.512;13.300;2022-12-10T02:04:27;17.37;;;10.70;;
28245;SDS011;15510;52.512;13.300;2022-12-10T02:07:00;18.30;;;11.93;;
28245;SDS011;15510;52.512;13.300;2022-12-10T02:09:47;17.83;;;11.63;;
28245;SDS011;15510;52.512;13.300;2022-12-10T02:15:13;18.63;;;11.40;;
28245;SDS011;15510;52.512;13.300;2022-12-10T02:17:52;15.73;;;9.90;;
28245;SDS011;15510;52.512;13.300;2022-12-10T02:20:46;18.13;;;11.53;;
28245;SDS011;15510;52.512;13.300;2022-12-10T02:23:23;18.00;;;10.77;;
28245;SDS011;15510;52.512;13.300;2022-12-10T02:28:44;16.60;;;11.67;;
28245;SDS011;15510;52.512;13.300;2022-12-10T02:31:13;18.90;;;11.93;;
28245;SDS011;15510;52.512;13.300;2022-12-10T02:33:43;17.97;;;11.90;;
28245;SDS011;15510;52.512;13.300;2022-12-10T02:36:14;20.80;;;11.90;;
28245;SDS011;15510;52.512;13.300;2022-12-10T02:38:41;20.33;;;11.87;;
28245;SDS011;15510;52.512;13.300;2022-12-10T02:41:18;20.87;;;12.87;;
28245;SDS011;15510;52.512;13.300;2022-12-10T02:43:49;18.63;;;12.60;;
28245;SDS011;15510;52.512;13.300;2022-12-10T02:46:17;20.43;;;12.43;;
28245;SDS011;15510;52.512;13.300;2022-12-10T02:48:46;20.63;;;12.00;;
28245;SDS011;15510;52.512;13.300;2022-12-10T02:51:13;20.07;;;12.63;;
28245;SDS011;15510;52.512;13.300;2022-12-10T02:53:42;20.20;;;12.17;;
28245;SDS011;15510;52.512;13.300;2022-12-10T03:02:00;20.20;;;12.67;;
28245;SDS011;15510;52.512;13.300;2022-12-10T03:07:18;20.63;;;12.23;;
28245;SDS011;15510;52.512;13.300;2022-12-10T03:09:53;20.23;;;12.83;;
28245;SDS011;15510;52.512;13.300;2022-12-10T03:12:31;17.23;;;11.23;;
28245;SDS011;15510;52.512;13.300;2022-12-10T03:15:05;22.77;;;13.37;;
28245;SDS011;15510;52.512;13.300;2022-12-10T03:17:34;19.43;;;12.43;;
28245;SDS011;15510;52.512;13.300;2022-12-10T03:20:03;22.70;;;14.03;;
28245;SDS011;15510;52.512;13.300;2022-12-10T03:22:33;20.63;;;12.40;;
28245;SDS011;15510;52.512;13.300;2022-12-10T03:25:02;21.47;;;13.97;;
28245;SDS011;15510;52.512;13.300;2022-12-10T03:27:29;19.63;;;12.63;;
28245;SDS011;15510;52.512;13.300;2022-12-10T03:29:56;21.40;;;13.07;;
28245;SDS011;15510;52.512;13.300;2022-12-10T03:32:25;22.03;;;13.60;;
28245;SDS011;15510;52.512;13.300;2022-12-10T03:34:53;21.87;;;13.20;;
28245;SDS011;15510;52.512;13.300;2022-12-10T03:37:21;20.13;;;12.53;;
28245;SDS011;15510;52.512;13.300;2022-12-10T03:39:48;22.47;;;13.13;;
28245;SDS011;15510;52.512;13.300;2022-12-10T03:42:14;19.07;;;11.70;;
28245;SDS011;15510;52.512;13.300;2022-12-10T03:44:40;20.43;;;12.50;;
28245;SDS011;15510;52.512;13.300;2022-12-10T03:47:06;21.83;;;12.53;;
28245;SDS011;15510;52.512;13.300;2022-12-10T03:49:34;20.97;;;13.30;;
28245;SDS011;15510;52.512;13.300;2022-12-10T03:52:00;19.33;;;12.73;;
28245;SDS011;15510;52.512;13.300;2022-12-10T03:54:25;20.93;;;13.43;;
28245;SDS011;15510;52.512;13.300;2022-12-10T03:56:51;20.80;;;13.57;;
28245;SDS011;15510;52.512;13.300;2022-12-10T03:59:17;20.47;;;13.40;;
28245;SDS011;15510;52.512;13.300;2022-12-10T04:01:43;21.00;;;13.50;;
28245;SDS011;15510;52.512;13.300;2022-12-10T04:04:09;20.70;;;12.83;;
28245;SDS011;15510;52.512;13.300;2022-12-10T04:06:36;18.77;;;12.53;;
28245;SDS011;15510;52.512;13.300;2022-12-10T04:09:03;18.87;;;12.23;;
28245;SDS011;15510;52.512;13.300;2022-12-10T04:11:29;21.50;;;13.20;;
28245;SDS011;15510;52.512;13.300;2022-12-10T04:13:55;18.83;;;12.27;;
28245;SDS011;15510;52.512;13.300;2022-12-10T04:16:39;16.93;;;11.87;;
28245;SDS011;15510;52.512;13.300;2022-12-10T04:19:08;22.10;;;13.07;;
28245;SDS011;15510;52.512;13.300;2022-12-10T04:21:37;21.17;;;13.30;;
28245;SDS011;15510;52.512;13.300;2022-12-10T04:24:23;20.90;;;12.67;;
28245;SDS011;15510;52.512;13.300;2022-12-10T04:27:13;20.30;;;13.60;;
28245;SDS011;15510;52.512;13.300;2022-12-10T04:29:51;18.90;;;12.77;;
28245;SDS011;15510;52.512;13.300;2022-12-10T04:32:18;18.67;;;11.70;;
28245;SDS011;15510;52.512;13.300;2022-12-10T04:34:44;20.03;;;13.30;;
28245;SDS011;15510;52.512;13.300;2022-12-10T04:37:10;18.67;;;12.90;;
28245;SDS011;15510;52.512;13.300;2022-12-10T04:39:36;18.50;;;12.23;;
28245;SDS011;15510;52.512;13.300;2022-12-10T04:42:03;20.37;;;13.07;;
28245;SDS011;15510;52.512;13.300;2022-12-10T04:44:29;20.83;;;13.27;;
28245;SDS011;15510;52.512;13.300;2022-12-10T04:46:55;19.10;;;11.97;;
28245;SDS011;15510;52.512;13.300;2022-12-10T04:49:21;21.87;;;12.63;;
28245;SDS011;15510;52.512;13.300;2022-12-10T04:51:47;19.87;;;12.80;;
28245;SDS011;15510;52.512;13.300;2022-12-10T04:54:13;19.33;;;13.13;;
28245;SDS011;15510;52.512;13.300;2022-12-10T04:56:39;19.93;;;12.57;;
28245;SDS011;15510;52.512;13.300;2022-12-10T04:59:06;18.63;;;12.87;;
28245;SDS011;15510;52.512;13.300;2022-12-10T05:01:32;19.47;;;12.37;;
28245;SDS011;15510;52.512;13.300;2022-12-10T05:03:59;21.20;;;12.60;;
28245;SDS011;15510;52.512;13.300;2022-12-10T05:06:26;20.77;;;13.07;;
28245;SDS011;15510;52.512;13.300;2022-12-10T05:08:52;18.37;;;11.97;;
28245;SDS011;15510;52.512;13.300;2022-12-10T05:11:18;20.67;;;12.93;;
28245;SDS011;15510;52.512;13.300;2022-12-10T05:13:45;20.10;;;12.97;;
28245;SDS011;15510;52.512;13.300;2022-12-10T05:16:13;16.63;;;11.53;;
28245;SDS011;15510;52.512;13.300;2022-12-10T05:18:40;17.27;;;12.00;;
28245;SDS011;15510;52.512;13.300;2022-12-10T05:21:07;18.27;;;11.53;;
28245;SDS011;15510;52.512;13.300;2022-12-10T05:23:37;16.40;;;10.93;;
28245;SDS011;15510;52.512;13.300;2022-12-10T05:26:22;15.53;;;10.97;;
28245;SDS011;15510;52.512;13.300;2022-12-10T05:28:51;19.37;;;12.07;;
28245;SDS011;15510;52.512;13.300;2022-12-10T05:31:20;17.43;;;11.63;;
28245;SDS011;15510;52.512;13.300;2022-12-10T05:33:47;21.03;;;12.63;;
28245;SDS011;15510;52.512;13.300;2022-12-10T05:36:14;17.13;;;11.30;;
28245;SDS011;15510;52.512;13.300;2022-12-10T05:38:41;18.37;;;11.57;;
28245;SDS011;15510;52.512;13.300;2022-12-10T05:41:17;14.87;;;10.90;;
28245;SDS011;15510;52.512;13.300;2022-12-10T05:43:45;17.73;;;12.03;;
28245;SDS011;15510;52.512;13.300;2022-12-10T05:46:12;14.43;;;10.47;;
28245;SDS011;15510;52.512;13.300;2022-12-10T05:48:39;15.70;;;10.57;;
28245;SDS011;15510;52.512;13.300;2022-12-10T05:51:06;17.10;;;10.70;;
28245;SDS011;15510;52.512;13.300;2022-12-10T05:53:34;16.57;;;11.20;;
28245;SDS011;15510;52.512;13.300;2022-12-10T05:56:05;17.77;;;11.50;;
28245;SDS011;15510;52.512;13.300;2022-12-10T05:58:33;16.00;;;10.90;;
28245;SDS011;15510;52.512;13.300;2022-12-10T06:00:59;17.33;;;11.30;;
28245;SDS011;15510;52.512;13.300;2022-12-10T06:03:30;16.73;;;11.10;;
28245;SDS011;15510;52.512;13.300;2022-12-10T06:05:56;16.20;;;10.97;;
28245;SDS011;15510;52.512;13.300;2022-12-10T06:08:22;17.10;;;11.27;;
28245;SDS011;15510;52.512;13.300;2022-12-10T06:10:47;18.83;;;11.23;;
28245;SDS011;15510;52.512;13.300;2022-12-10T06:13:13;16.43;;;11.37;;
28245;SDS011;15510;52.512;13.300;2022-12-10T06:15:39;14.80;;;10.60;;
28245;SDS011;15510;52.512;13.300;2022-12-10T06:18:06;14.23;;;9.40;;
28245;SDS011;15510;52.512;13.300;2022-12-10T06:20:32;13.90;;;10.10;;
28245;SDS011;15510;52.512;13.300;2022-12-10T06:22:57;15.83;;;9.93;;
28245;SDS011;15510;52.512;13.300;2022-12-10T06:25:23;14.60;;;10.23;;
28245;SDS011;15510;52.512;13.300;2022-12-10T06:27:49;13.60;;;9.97;;
28245;SDS011;15510;52.512;13.300;2022-12-10T06:30:15;15.03;;;10.27;;
28245;SDS011;15510;52.512;13.300;2022-12-10T06:32:41;14.10;;;10.17;;
28245;SDS011;15510;52.512;13.300;2022-12-10T06:35:09;16.40;;;9.73;;
28245;SDS011;15510;52.512;13.300;2022-12-10T06:37:35;12.97;;;9.77;;
28245;SDS011;15510;52.512;13.300;2022-12-10T06:40:02;13.27;;;9.37;;
28245;SDS011;15510;52.512;13.300;2022-12-10T06:42:28;14.53;;;10.00;;
28245;SDS011;15510;52.512;13.300;2022-12-10T06:44:54;13.23;;;9.57;;
28245;SDS011;15510;52.512;13.300;2022-12-10T06:47:19;12.17;;;9.07;;
28245;SDS011;15510;52.512;13.300;2022-12-10T06:49:45;11.90;;;8.90;;
28245;SDS011;15510;52.512;13.300;2022-12-10T06:52:11;13.10;;;9.30;;
28245;SDS011;15510;52.512;13.300;2022-12-10T06:54:37;12.60;;;9.00;;
28245;SDS011;15510;52.512;13.300;2022-12-10T06:57:02;13.83;;;10.03;;
28245;SDS011;15510;52.512;13.300;2022-12-10T06:59:28;11.97;;;8.83;;
28245;SDS011;15510;52.512;13.300;2022-12-10T07:01:54;13.03;;;9.33;;
28245;SDS011;15510;52.512;13.300;2022-12-10T07:04:19;13.30;;;9.27;;
28245;SDS011;15510;52.512;13.300;2022-12-10T07:06:45;13.27;;;8.87;;
28245;SDS011;15510;52.512;13.300;2022-12-10T07:09:11;13.40;;;9.63;;
28245;SDS011;15510;52.512;13.300;2022-12-10T07:11:37;14.33;;;8.97;;
28245;SDS011;15510;52.512;13.300;2022-12-10T07:14:03;12.53;;;9.17;;
28245;SDS011;15510;52.512;13.300;2022-12-10T07:16:30;13.03;;;9.00;;
28245;SDS011;15510;52.512;13.300;2022-12-10T07:18:57;13.53;;;8.67;;
28245;SDS011;15510;52.512;13.300;2022-12-10T07:21:26;11.90;;;8.50;;
28245;SDS011;15510;52.512;13.300;2022-12-10T07:24:01;10.77;;;8.30;;
28245;SDS011;15510;52.512;13.300;2022-12-10T07:26:39;12.97;;;9.03;;
28245;SDS011;15510;52.512;13.300;2022-12-10T07:29:07;12.40;;;8.60;;
28245;SDS011;15510;52.512;13.300;2022-12-10T07:31:35;12.37;;;8.43;;
28245;SDS011;15510;52.512;13.300;2022-12-10T07:34:01;12.80;;;9.07;;
28245;SDS011;15510;52.512;13.300;2022-12-10T07:36:27;10.17;;;7.37;;
28245;SDS011;15510;52.512;13.300;2022-12-10T07:38:53;11.60;;;8.67;;
28245;SDS011;15510;52.512;13.300;2022-12-10T07:41:20;11.40;;;8.03;;
28245;SDS011;15510;52.512;13.300;2022-12-10T07:43:47;12.30;;;8.50;;
28245;SDS011;15510;52.512;13.300;2022-12-10T07:48:43;13.07;;;8.87;;
28245;SDS011;15510;52.512;13.300;2022-12-10T07:51:10;11.40;;;8.80;;
28245;SDS011;15510;52.512;13.300;2022-12-10T07:53:36;11.30;;;8.73;;
28245;SDS011;15510;52.512;13.300;2022-12-10T07:56:02;12.30;;;9.20;;
28245;SDS011;15510;52.512;13.300;2022-12-10T07:58:29;10.50;;;7.97;;
28245;SDS011;15510;52.512;13.300;2022-12-10T08:00:55;13.53;;;8.20;;
28245;SDS011;15510;52.512;13.300;2022-12-10T08:03:20;13.50;;;8.63;;
28245;SDS011;15510;52.512;13.300;2022-12-10T08:05:46;12.83;;;8.90;;
28245;SDS011;15510;52.512;13.300;2022-12-10T08:08:12;11.23;;;8.50;;
28245;SDS011;15510;52.512;13.300;2022-12-10T08:10:38;12.47;;;9.37;;
28245;SDS011;15510;52.512;13.300;2022-12-10T08:13:04;11.97;;;9.20;;
28245;SDS011;15510;52.512;13.300;2022-12-10T08:15:31;13.53;;;9.43;;
28245;SDS011;15510;52.512;13.300;2022-12-10T08:17:57;12.20;;;9.70;;
28245;SDS011;15510;52.512;13.300;2022-12-10T08:20:23;16.67;;;10.00;;
28245;SDS011;15510;52.512;13.300;2022-12-10T08:22:50;14.80;;;10.20;;
28245;SDS011;15510;52.512;13.300;2022-12-10T08:25:16;12.57;;;9.90;;
28245;SDS011;15510;52.512;13.300;2022-12-10T08:27:42;12.00;;;9.37;;
28245;SDS011;15510;52.512;13.300;2022-12-10T08:30:08;12.40;;;10.17;;
28245;SDS011;15510;52.512;13.300;2022-12-10T08:32:34;14.27;;;10.13;;
28245;SDS011;15510;52.512;13.300;2022-12-10T08:35:00;15.37;;;10.13;;
28245;SDS011;15510;52.512;13.300;2022-12-10T08:37:26;15.50;;;11.03;;
28245;SDS011;15510;52.512;13.300;2022-12-10T08:39:51;15.03;;;10.57;;
28245;SDS011;15510;52.512;13.300;2022-12-10T08:42:17;15.73;;;10.23;;
28245;SDS011;15510;52.512;13.300;2022-12-10T08:44:43;13.77;;;9.67;;
28245;SDS011;15510;52.512;13.300;2022-12-10T08:47:09;12.23;;;9.03;;
28245;SDS011;15510;52.512;13.300;2022-12-10T08:49:34;11.80;;;8.87;;
28245;SDS011;15510;52.512;13.300;2022-12-10T08:52:00;12.30;;;8.87;;
28245;SDS011;15510;52.512;13.300;2022-12-10T08:54:26;13.70;;;9.03;;
28245;SDS011;15510;52.512;13.300;2022-12-10T08:56:51;12.87;;;9.73;;
28245;SDS011;15510;52.512;13.300;2022-12-10T08:59:17;15.40;;;9.33;;
28245;SDS011;15510;52.512;13.300;2022-12-10T09:01:43;12.13;;;9.17;;
28245;SDS011;15510;52.512;13.300;2022-12-10T09:04:08;11.63;;;9.43;;
28245;SDS011;15510;52.512;13.300;2022-12-10T09:06:34;11.60;;;9.10;;
28245;SDS011;15510;52.512;13.300;2022-12-10T09:09:00;13.93;;;9.07;;
28245;SDS011;15510;52.512;13.300;2022-12-10T09:11:28;12.53;;;9.27;;
28245;SDS011;15510;52.512;13.300;2022-12-10T09:13:56;11.03;;;8.83;;
28245;SDS011;15510;52.512;13.300;2022-12-10T09:16:27;14.13;;;9.47;;
28245;SDS011;15510;52.512;13.300;2022-12-10T09:18:57;11.23;;;8.60;;
28245;SDS011;15510;52.512;13.300;2022-12-10T09:21:24;12.07;;;8.60;;
28245;SDS011;15510;52.512;13.300;2022-12-10T09:23:50;12.37;;;9.33;;
28245;SDS011;15510;52.512;13.300;2022-12-10T09:26:19;17.47;;;10.20;;
28245;SDS011;15510;52.512;13.300;2022-12-10T09:28:46;15.23;;;9.90;;
28245;SDS011;15510;52.512;13.300;2022-12-10T09:31:13;14.80;;;9.47;;
28245;SDS011;15510;52.512;13.300;2022-12-10T09:33:40;11.27;;;8.63;;
28245;SDS011;15510;52.512;13.300;2022-12-10T09:36:07;12.53;;;9.47;;
28245;SDS011;15510;52.512;13.300;2022-12-10T09:38:36;11.97;;;9.10;;
28245;SDS011;15510;52.512;13.300;2022-12-10T09:46:26;11.97;;;8.63;;
28245;SDS011;15510;52.512;13.300;2022-12-10T09:52:01;14.17;;;9.67;;
28245;SDS011;15510;52.512;13.300;2022-12-10T09:54:30;13.53;;;10.67;;
28245;SDS011;15510;52.512;13.300;2022-12-10T09:57:03;11.90;;;9.03;;
28245;SDS011;15510;52.512;13.300;2022-12-10T09:59:31;13.87;;;9.83;;
28245;SDS011;15510;52.512;13.300;2022-12-10T10:02:11;11.27;;;9.17;;
28245;SDS011;15510;52.512;13.300;2022-12-10T10:04:51;12.37;;;9.00;;
28245;SDS011;15510;52.512;13.300;2022-12-10T10:07:21;14.17;;;9.47;;
28245;SDS011;15510;52.512;13.300;2022-12-10T10:09:50;12.33;;;9.20;;
28245;SDS011;15510;52.512;13.300;2022-12-10T10:12:22;12.53;;;9.57;;
28245;SDS011;15510;52.512;13.300;2022-12-10T10:14:48;11.60;;;8.63;;
28245;SDS011;15510;52.512;13.300;2022-12-10T10:17:22;13.63;;;10.07;;
28245;SDS011;15510;52.512;13.300;2022-12-10T10:19:54;11.87;;;8.80;;
28245;SDS011;15510;52.512;13.300;2022-12-10T10:22:19;11.30;;;9.27;;
28245;SDS011;15510;52.512;13.300;2022-12-10T10:24:46;11.77;;;8.97;;
28245;SDS011;15510;52.512;13.300;2022-12-10T10:27:16;12.70;;;9.57;;
28245;SDS011;15510;52.512;13.300;2022-12-10T10:29:45;11.73;;;8.90;;
28245;SDS011;15510;52.512;13.300;2022-12-10T10:32:16;12.00;;;9.00;;
28245;SDS011;15510;52.512;13.300;2022-12-10T10:34:44;12.27;;;8.60;;
28245;SDS011;15510;52.512;13.300;2022-12-10T10:37:15;12.03;;;8.53;;
28245;SDS011;15510;52.512;13.300;2022-12-10T10:39:49;12.00;;;9.07;;
28245;SDS011;15510;52.512;13.300;2022-12-10T10:42:22;13.57;;;8.90;;
28245;SDS011;15510;52.512;13.300;2022-12-10T10:45:04;12.10;;;8.87;;
28245;SDS011;15510;52.512;13.300;2022-12-10T10:47:52;11.07;;;9.00;;
28245;SDS011;15510;52.512;13.300;2022-12-10T10:50:30;12.50;;;9.30;;
28245;SDS011;15510;52.512;13.300;2022-12-10T10:52:55;13.13;;;9.83;;
28245;SDS011;15510;52.512;13.300;2022-12-10T10:55:31;13.93;;;9.50;;
28245;SDS011;15510;52.512;13.300;2022-12-10T10:58:00;13.10;;;9.40;;
28245;SDS011;15510;52.512;13.300;2022-12-10T11:00:26;12.23;;;9.47;;
28245;SDS011;15510;52.512;13.300;2022-12-10T11:02:52;13.33;;;9.70;;
28245;SDS011;15510;52.512;13.300;2022-12-10T11:05:22;11.97;;;9.40;;
28245;SDS011;15510;52.512;13.300;2022-12-10T11:07:56;9.90;;;8.17;;
28245;SDS011;15510;52.512;13.300;2022-12-10T11:10:23;10.97;;;8.87;;
28245;SDS011;15510;52.512;13.300;2022-12-10T11:13:33;11.93;;;8.90;;
28245;SDS011;15510;52.512;13.300;2022-12-10T11:15:58;15.83;;;9.60;;
28245;SDS011;15510;52.512;13.300;2022-12-10T11:18:31;11.67;;;8.90;;
28245;SDS011;15510;52.512;13.300;2022-12-10T11:21:20;12.57;;;9.10;;
28245;SDS011;15510;52.512;13.300;2022-12-10T11:23:54;11.53;;;9.27;;
28245;SDS011;15510;52.512;13.300;2022-12-10T11:37:31;14.00;;;10.33;;
28245;SDS011;15510;52.512;13.300;2022-12-10T11:40:28;14.90;;;10.37;;
28245;SDS011;15510;52.512;13.300;2022-12-10T11:48:08;11.13;;;9.30;;
28245;SDS011;15510;52.512;13.300;2022-12-10T11:50:53;12.80;;;10.00;;
28245;SDS011;15510;52.512;13.300;2022-12-10T11:53:45;15.17;;;9.63;;
28245;SDS011;15510;52.512;13.300;2022-12-10T11:56:24;12.50;;;9.90;;
28245;SDS011;15510;52.512;13.300;2022-12-10T12:07:20;13.83;;;10.23;;
28245;SDS011;15510;52.512;13.300;2022-12-10T12:13:28;13.57;;;9.60;;
28245;SDS011;15510;52.512;13.300;2022-12-10T12:21:19;17.97;;;12.57;;
28245;SDS011;15510;52.512;13.300;2022-12-10T12:26:58;16.30;;;11.90;;
28245;SDS011;15510;52.512;13.300;2022-12-10T12:29:33;14.93;;;10.90;;
28245;SDS011;15510;52.512;13.300;2022-12-10T12:32:11;14.13;;;9.73;;
28245;SDS011;15510;52.512;13.300;2022-12-10T12:34:51;14.33;;;9.93;;
28245;SDS011;15510;52.512;13.300;2022-12-10T12:37:18;13.60;;;10.57;;
28245;SDS011;15510;52.512;13.300;2022-12-10T12:39:53;15.30;;;11.23;;
28245;SDS011;15510;52.512;13.300;2022-12-10T12:42:57;15.90;;;11.83;;
28245;SDS011;15510;52.512;13.300;2022-12-10T12:45:36;14.67;;;10.60;;
28245;SDS011;15510;52.512;13.300;2022-12-10T12:53:35;15.70;;;11.03;;
28245;SDS011;15510;52.512;13.300;2022-12-10T12:56:09;17.13;;;11.63;;
28245;SDS011;15510;52.512;13.300;2022-12-10T13:03:45;15.60;;;11.10;;
28245;SDS011;15510;52.512;13.300;2022-12-10T13:06:30;16.43;;;11.47;;
28245;SDS011;15510;52.512;13.300;2022-12-10T13:17:26;16.53;;;11.77;;
28245;SDS011;15510;52.512;13.300;2022-12-10T13:20:24;14.40;;;11.07;;
28245;SDS011;15510;52.512;13.300;2022-12-10T13:41:27;17.00;;;12.07;;
28245;SDS011;15510;52.512;13.300;2022-12-10T13:49:53;21.87;;;12.70;;
28245;SDS011;15510;52.512;13.300;2022-12-10T13:52:51;20.67;;;12.17;;
28245;SDS011;15510;52.512;13.300;2022-12-10T14:08:36;19.73;;;12.63;;
28245;SDS011;15510;52.512;13.300;2022-12-10T14:11:12;22.10;;;12.83;;
28245;SDS011;15510;52.512;13.300;2022-12-10T14:13:46;21.57;;;12.57;;
28245;SDS011;15510;52.512;13.300;2022-12-10T14:16:16;17.80;;;12.23;;
28245;SDS011;15510;52.512;13.300;2022-12-10T14:18:52;21.37;;;12.07;;
28245;SDS011;15510;52.512;13.300;2022-12-10T14:21:21;28.80;;;19.05;;
28245;SDS011;15510;52.512;13.300;2022-12-10T14:23:49;27.08;;;18.08;;
28245;SDS011;15510;52.512;13.300;2022-12-10T14:26:19;20.93;;;13.53;;
28245;SDS011;15510;52.512;13.300;2022-12-10T14:28:55;19.00;;;11.90;;
28245;SDS011;15510;52.512;13.300;2022-12-10T14:31:23;19.87;;;11.23;;
28245;SDS011;15510;52.512;13.300;2022-12-10T14:34:07;16.97;;;11.53;;
28245;SDS011;15510;52.512;13.300;2022-12-10T14:36:39;20.10;;;11.83;;
28245;SDS011;15510;52.512;13.300;2022-12-10T14:39:17;23.23;;;12.23;;
28245;SDS011;15510;52.512;13.300;2022-12-10T14:41:47;21.97;;;12.77;;
28245;SDS011;15510;52.512;13.300;2022-12-10T14:44:15;22.50;;;12.10;;
28245;SDS011;15510;52.512;13.300;2022-12-10T14:46:43;20.37;;;12.07;;
28245;SDS011;15510;52.512;13.300;2022-12-10T14:49:19;20.60;;;12.27;;
28245;SDS011;15510;52.512;13.300;2022-12-10T14:51:48;19.93;;;11.63;;
28245;SDS011;15510;52.512;13.300;2022-12-10T14:54:25;22.80;;;12.53;;
28245;SDS011;15510;52.512;13.300;2022-12-10T14:56:56;18.80;;;11.43;;
28245;SDS011;15510;52.512;13.300;2022-12-10T14:59:26;24.53;;;12.30;;
28245;SDS011;15510;52.512;13.300;2022-12-10T15:01:59;22.67;;;12.40;;
28245;SDS011;15510;52.512;13.300;2022-12-10T15:04:40;24.17;;;12.90;;
28245;SDS011;15510;52.512;13.300;2022-12-10T15:07:13;29.17;;;16.90;;
28245;SDS011;15510;52.512;13.300;2022-12-10T15:09:42;28.73;;;16.57;;
28245;SDS011;15510;52.512;13.300;2022-12-10T15:15:12;20.97;;;12.40;;
28245;SDS011;15510;52.512;13.300;2022-12-10T15:17:53;25.53;;;12.83;;
28245;SDS011;15510;52.512;13.300;2022-12-10T15:20:53;24.10;;;12.20;;
28245;SDS011;15510;52.512;13.300;2022-12-10T15:28:35;23.23;;;12.57;;
28245;SDS011;15510;52.512;13.300;2022-12-10T15:33:36;23.97;;;11.77;;
28245;SDS011;15510;52.512;13.300;2022-12-10T15:36:11;22.53;;;13.50;;
28245;SDS011;15510;52.512;13.300;2022-12-10T15:38:56;25.20;;;13.17;;
28245;SDS011;15510;52.512;13.300;2022-12-10T15:41:33;24.30;;;13.40;;
28245;SDS011;15510;52.512;13.300;2022-12-10T15:49:35;25.37;;;13.07;;
28245;SDS011;15510;52.512;13.300;2022-12-10T15:52:01;27.33;;;12.30;;
28245;SDS011;15510;52.512;13.300;2022-12-10T15:54:35;26.57;;;12.47;;
28245;SDS011;15510;52.512;13.300;2022-12-10T15:57:19;28.90;;;13.33;;
28245;SDS011;15510;52.512;13.300;2022-12-10T15:59:54;30.30;;;14.33;;
28245;SDS011;15510;52.512;13.300;2022-12-10T16:02:37;33.27;;;14.50;;
28245;SDS011;15510;52.512;13.300;2022-12-10T16:07:37;31.87;;;13.83;;
28245;SDS011;15510;52.512;13.300;2022-12-10T16:10:03;30.53;;;13.37;;
28245;SDS011;15510;52.512;13.300;2022-12-10T16:12:29;29.43;;;14.30;;
28245;SDS011;15510;52.512;13.300;2022-12-10T16:14:58;32.00;;;15.00;;
28245;SDS011;15510;52.512;13.300;2022-12-10T16:17:27;35.13;;;14.17;;
28245;SDS011;15510;52.512;13.300;2022-12-10T16:19:57;30.93;;;14.83;;
28245;SDS011;15510;52.512;13.300;2022-12-10T16:22:24;36.93;;;14.57;;
28245;SDS011;15510;52.512;13.300;2022-12-10T16:24:50;35.30;;;14.67;;
28245;SDS011;15510;52.512;13.300;2022-12-10T16:27:15;30.03;;;14.30;;
28245;SDS011;15510;52.512;13.300;2022-12-10T16:29:42;33.53;;;15.20;;
28245;SDS011;15510;52.512;13.300;2022-12-10T16:32:09;33.97;;;14.30;;
28245;SDS011;15510;52.512;13.300;2022-12-10T16:34:35;37.97;;;16.33;;
28245;SDS011;15510;52.512;13.300;2022-12-10T16:37:01;34.67;;;14.63;;
28245;SDS011;15510;52.512;13.300;2022-12-10T16:39:28;34.13;;;14.87;;
28245;SDS011;15510;52.512;13.300;2022-12-10T16:41:53;36.10;;;14.80;;
28245;SDS011;15510;52.512;13.300;2022-12-10T16:44:20;35.20;;;15.13;;
28245;SDS011;15510;52.512;13.300;2022-12-10T16:46:45;36.20;;;14.97;;
28245;SDS011;15510;52.512;13.300;2022-12-10T16:49:11;35.90;;;14.47;;
28245;SDS011;15510;52.512;13.300;2022-12-10T16:51:37;42.10;;;16.60;;